Aeroporto :
LOGIN :

Iscrizione | Disclaimer

   EN    FR    IT 

 










Sommario :    VFR   VFR Marginale   IFR   IFR Intensivo   IFR Molto Intensivo
Visibilità : 
Base nubi : 
>= 8 km
>= 3000ft
5 / 8 km
1000 / 3000 ft
1500m / 5 km
500 / 1000 ft
800 / 1500m
200 / 500 ft
< 800m
< 200 ft
Simboli :   Temporali  Nebbia  Neve Forte  Precipitazioni Forti  Vento > 20 kt
SIGMETs :   Varie  Temporali  Ghiacco  Turbolenza  Onda orograficha  Ceneri Vulcaniche






- Altitudine del aeroporto : 18 ft
- Codice IATA : AJA


LFKJ - Ajaccio

ULTIMO METAR :
  • 191830Z AUTO 11004KT 070V160 CAVOK 08/04 Q1022 NOSIG

METARs OBSOLETI :
  • 191800Z AUTO VRB02KT CAVOK 08/04 Q1022 NOSIG
  • 191730Z AUTO 04004KT 350V140 CAVOK 10/04 Q1022 NOSIG
  • 191700Z AUTO VRB03KT CAVOK 11/04 Q1022 NOSIG
  • 191630Z AUTO 06003KT CAVOK 11/06 Q1022 NOSIG
  • 191600Z AUTO 35003KT CAVOK 12/05 Q1022 NOSIG

TAF TAF LFKJ
Valido dal 19 a 15 ore il 20 a 15 ore UTC


191400Z 1915/2015 VRB05KT CAVOK
BECMG 2000/2003 04010KT
TEMPO 2003/2015 RA
ATIS : +33 4 95 23 59 85



MetMap, La meteo Aeronautica in un colpo d'occhio ! - Copyright ORBIFLY Dicembre 2007 - Disclaimer

ORBIFLY MET'MAP TEAM :

Programmazione e sviluppo : Alexandra Zaïnal
Concezione : Baudouin d'Aumeries
Aiuto per la programmazione : Marc-Olivier Méhu
Supporto tecnico e logistico : Manuel Goepfert
Aiuto per la traduzione : Arnaldo La Scala

Contatto : metmap@orbifly.com




FONTI E CREDITI :

   NOAA